Time;durP1;ratioP1;P1;durP2;ratioP2;P2;SDS_P1;SDS_P2;PMS_P1;PMS_P2;Temp;Humidity;BMP_temperature;BMP_pressure;BME280_temperature;BME280_humidity;BME280_pressure;Samples;Min_cycle;Max_cycle;Signal;HPM_P1;HPM_P2
2021/06/12 00:00:45;;;;;;;4.60;3.10;;;;;;;18.00;100.00;100747.66;5205295;28;20351;-77
2021/06/12 00:03:15;;;;;;;7.22;3.80;;;;;;;18.05;100.00;100746.44;5190584;28;20105;-78
2021/06/12 00:05:46;;;;;;;4.82;3.10;;;;;;;18.16;100.00;100746.56;5199143;28;20033;-75
2021/06/12 00:08:16;;;;;;;5.97;4.05;;;;;;;18.25;100.00;100742.50;5200576;28;20533;-77
2021/06/12 00:10:46;;;;;;;5.57;3.67;;;;;;;18.29;100.00;100744.00;5210196;28;20062;-77
2021/06/12 00:13:17;;;;;;;5.23;4.13;;;;;;;18.31;100.00;100747.44;5208913;28;20029;-79
2021/06/12 00:15:47;;;;;;;7.32;3.90;;;;;;;18.44;100.00;100740.38;5211514;28;20775;-77
2021/06/12 00:18:17;;;;;;;6.22;4.40;;;;;;;18.53;100.00;100739.81;5210955;28;20126;-77
2021/06/12 00:20:48;;;;;;;6.67;4.00;;;;;;;18.60;100.00;100741.09;5202349;28;20133;-77
2021/06/12 00:23:18;;;;;;;6.90;4.07;;;;;;;18.68;100.00;100733.50;5201805;28;20287;-77
2021/06/12 00:25:48;;;;;;;10.20;4.10;;;;;;;18.47;100.00;100741.03;5210188;28;20452;-76
2021/06/12 00:28:19;;;;;;;6.03;3.60;;;;;;;18.05;100.00;100738.50;5217054;28;20264;-78
2021/06/12 00:30:49;;;;;;;5.38;3.35;;;;;;;18.28;100.00;100740.53;5215630;28;20036;-79
2021/06/12 00:33:19;;;;;;;6.07;3.60;;;;;;;18.66;100.00;100736.22;5213822;28;20390;-78
2021/06/12 00:35:49;;;;;;;5.05;3.17;;;;;;;18.65;99.75;100725.75;5208310;28;20456;-77
2021/06/12 00:38:20;;;;;;;7.27;3.43;;;;;;;18.64;99.55;100739.94;5211123;28;20031;-78
2021/06/12 00:40:50;;;;;;;9.20;3.50;;;;;;;18.33;100.00;100737.59;5214814;28;20280;-78
2021/06/12 00:43:20;;;;;;;8.00;3.38;;;;;;;18.28;100.00;100737.03;5215054;28;20330;-78
2021/06/12 00:45:51;;;;;;;5.75;3.60;;;;;;;18.27;100.00;100743.25;5216124;28;20037;-77
2021/06/12 00:48:21;;;;;;;8.98;3.40;;;;;;;18.34;100.00;100737.47;5219567;28;20020;-78
2021/06/12 00:50:52;;;;;;;6.28;3.13;;;;;;;18.60;100.00;100730.50;5221562;28;20438;-77
2021/06/12 00:53:37;;;;;;;5.18;3.40;;;;;;;18.49;100.00;100725.06;5214676;28;20467;-76
2021/06/12 00:56:10;;;;;;;8.80;3.33;;;;;;;18.76;100.00;100724.94;5211687;28;20423;-78
2021/06/12 00:58:42;;;;;;;11.35;3.20;;;;;;;18.81;99.77;100730.78;5219397;28;20104;-78
2021/06/12 01:01:16;;;;;;;8.15;3.10;;;;;;;18.47;100.00;100726.94;5210677;28;20026;-78
2021/06/12 01:03:47;;;;;;;6.90;3.47;;;;;;;18.30;100.00;100727.19;5212900;28;20499;-79
2021/06/12 01:06:20;;;;;;;11.48;3.90;;;;;;;18.06;100.00;100726.09;5255389;22;20525;-78
2021/06/12 01:08:50;;;;;;;8.45;3.80;;;;;;;18.04;100.00;100720.06;5213363;28;20042;-79
2021/06/12 01:11:21;;;;;;;8.90;3.60;;;;;;;18.20;100.00;100715.47;5211932;28;20026;-79
2021/06/12 01:14:09;;;;;;;7.43;3.42;;;;;;;18.31;100.00;100713.88;5217812;28;20029;-79
2021/06/12 01:17:01;;;;;;;10.55;3.80;;;;;;;18.14;100.00;100708.78;5213326;28;20545;-79
2021/06/12 01:19:31;;;;;;;6.97;3.80;;;;;;;18.12;100.00;100712.47;5192244;28;20069;-79
2021/06/12 01:22:08;;;;;;;11.33;3.80;;;;;;;18.07;100.00;100711.91;5196601;28;20064;-79
2021/06/12 01:25:05;;;;;;;9.38;3.85;;;;;;;18.06;100.00;100712.88;5202698;28;20597;-79
2021/06/12 01:28:00;;;;;;;7.50;3.75;;;;;;;18.01;100.00;100720.25;5194970;28;20386;-79
2021/06/12 01:30:34;;;;;;;7.50;3.83;;;;;;;18.08;100.00;100717.13;5189022;28;20029;-79
2021/06/12 01:33:08;;;;;;;10.25;3.83;;;;;;;18.09;100.00;100721.47;5195255;28;20168;-79
2021/06/12 01:35:47;;;;;;;8.23;3.78;;;;;;;17.88;100.00;100721.97;5198066;28;20032;-79
2021/06/12 01:38:25;;;;;;;10.10;3.67;;;;;;;18.03;100.00;100718.38;5198514;28;20025;-79
2021/06/12 01:41:04;;;;;;;8.57;3.75;;;;;;;18.13;100.00;100720.31;5196231;28;20044;-79
2021/06/12 01:43:37;;;;;;;12.00;4.00;;;;;;;18.17;100.00;100716.53;5194678;28;20030;-79
2021/06/12 01:46:11;;;;;;;7.68;3.53;;;;;;;18.17;100.00;100713.88;5197674;28;20025;-79
2021/06/12 01:48:44;;;;;;;11.63;3.80;;;;;;;18.08;100.00;100721.56;5195657;28;20029;-79
2021/06/12 01:51:15;;;;;;;6.65;3.42;;;;;;;18.22;100.00;100719.75;5196979;28;20025;-79
2021/06/12 01:53:50;;;;;;;8.23;3.70;;;;;;;18.48;100.00;100723.38;5196435;28;20033;-79
2021/06/12 01:56:24;;;;;;;7.40;3.72;;;;;;;18.44;100.00;100724.50;5193035;28;20026;-79
2021/06/12 01:58:55;;;;;;;7.30;3.88;;;;;;;18.48;100.00;100726.03;5202049;28;20025;-79
2021/06/12 02:01:26;;;;;;;7.85;3.85;;;;;;;18.43;100.00;100718.38;5199723;28;20086;-79
2021/06/12 02:03:59;;;;;;;8.73;3.83;;;;;;;18.57;100.00;100714.81;5197191;28;20056;-80
2021/06/12 02:06:31;;;;;;;8.10;4.22;;;;;;;18.58;100.00;100716.50;5198104;28;20072;-79
2021/06/12 02:09:01;;;;;;;9.40;4.10;;;;;;;18.56;100.00;100713.13;5193361;28;20443;-80
2021/06/12 02:11:32;;;;;;;7.75;3.40;;;;;;;18.83;100.00;100713.00;5196625;28;20105;-79
2021/06/12 02:14:03;;;;;;;6.43;3.35;;;;;;;18.72;100.00;100698.75;5197983;28;20365;-79
2021/06/12 02:16:36;;;;;;;7.45;3.40;;;;;;;18.74;100.00;100710.13;5197745;28;20109;-79
2021/06/12 02:19:10;;;;;;;9.35;3.65;;;;;;;18.70;100.00;100702.47;5194096;28;20018;-79
2021/06/12 02:21:41;;;;;;;8.00;3.50;;;;;;;18.76;100.00;100714.34;5196327;28;20036;-79
2021/06/12 02:24:12;;;;;;;9.70;3.30;;;;;;;18.74;100.00;100716.25;5192549;28;20092;-79
2021/06/12 02:26:45;;;;;;;8.38;3.95;;;;;;;18.60;100.00;100709.31;5200737;28;20083;-79
2021/06/12 02:29:16;;;;;;;8.18;3.97;;;;;;;18.64;100.00;100718.75;5195960;28;20022;-79
2021/06/12 02:31:52;;;;;;;8.50;4.53;;;;;;;18.56;100.00;100705.19;5193712;28;20068;-79
2021/06/12 02:34:22;;;;;;;8.38;4.95;;;;;;;18.69;100.00;100712.19;5197310;28;20076;-79
2021/06/12 02:36:53;;;;;;;8.07;6.20;;;;;;;18.88;100.00;100710.00;5197169;28;20064;-79
2021/06/12 02:39:24;;;;;;;8.82;5.45;;;;;;;18.87;100.00;100717.13;5194889;28;20099;-79
2021/06/12 02:41:54;;;;;;;10.15;5.80;;;;;;;18.98;100.00;100711.97;5195967;28;20029;-79
2021/06/12 02:44:25;;;;;;;10.45;6.28;;;;;;;19.17;100.00;100716.88;5195114;28;20029;-79
2021/06/12 02:47:02;;;;;;;10.00;6.53;;;;;;;19.26;100.00;100721.56;5193417;28;20029;-79
2021/06/12 02:49:37;;;;;;;9.18;5.78;;;;;;;19.21;100.00;100713.06;5194259;28;20021;-79
2021/06/12 02:52:18;;;;;;;8.68;5.20;;;;;;;19.17;100.00;100712.44;5195343;28;20176;-79
2021/06/12 02:54:50;;;;;;;13.15;6.35;;;;;;;19.43;100.00;100716.78;5195294;28;20037;-79
2021/06/12 02:57:21;;;;;;;10.30;6.43;;;;;;;19.54;100.00;100721.31;5198677;28;20034;-79
2021/06/12 02:59:53;;;;;;;9.48;6.47;;;;;;;19.46;100.00;100719.19;5196098;28;20029;-79
2021/06/12 03:02:24;;;;;;;9.98;5.90;;;;;;;19.34;100.00;100709.47;5195636;28;20065;-79
2021/06/12 03:04:56;;;;;;;9.63;6.35;;;;;;;19.28;100.00;100704.56;5192688;28;20025;-80
2021/06/12 03:07:27;;;;;;;9.02;6.50;;;;;;;19.17;100.00;100701.84;5194611;28;20033;-79
2021/06/12 03:09:59;;;;;;;12.50;6.40;;;;;;;19.18;100.00;100700.88;5193925;28;20812;-79
2021/06/12 03:12:30;;;;;;;8.48;6.40;;;;;;;19.20;100.00;100709.56;5195580;28;20033;-79
2021/06/12 03:15:01;;;;;;;10.10;6.72;;;;;;;19.39;100.00;100717.09;5193209;28;20037;-79
2021/06/12 03:17:32;;;;;;;8.27;5.63;;;;;;;19.41;100.00;100718.69;5194213;28;20514;-80
2021/06/12 03:20:05;;;;;;;9.70;6.22;;;;;;;19.41;100.00;100716.03;5197267;28;20017;-79
2021/06/12 03:22:36;;;;;;;8.20;6.13;;;;;;;19.38;100.00;100716.25;5195926;28;20036;-79
2021/06/12 03:25:08;;;;;;;8.77;6.38;;;;;;;19.29;100.00;100711.56;5196056;28;20488;-79
2021/06/12 03:27:39;;;;;;;8.68;6.32;;;;;;;19.27;100.00;100717.94;5194470;28;20025;-79
2021/06/12 03:30:10;;;;;;;8.88;5.90;;;;;;;19.39;100.00;100714.44;5202103;28;20021;-80
2021/06/12 03:32:41;;;;;;;12.25;6.70;;;;;;;19.41;100.00;100716.03;5199329;28;20030;-79
2021/06/12 03:35:12;;;;;;;10.85;7.10;;;;;;;19.35;100.00;100711.16;5201033;28;20025;-80
2021/06/12 03:37:43;;;;;;;11.13;6.60;;;;;;;19.35;100.00;100718.25;5194232;28;20026;-80
2021/06/12 03:40:15;;;;;;;9.55;7.28;;;;;;;19.28;100.00;100717.00;5194536;28;20087;-80
2021/06/12 03:42:46;;;;;;;12.25;6.90;;;;;;;19.30;100.00;100717.72;5195651;28;20061;-79
2021/06/12 03:45:17;;;;;;;8.70;5.95;;;;;;;19.43;100.00;100727.38;5193631;28;20037;-79
2021/06/12 03:47:49;;;;;;;9.45;6.47;;;;;;;19.30;100.00;100723.88;5195248;28;20029;-79
2021/06/12 03:50:20;;;;;;;13.73;6.50;;;;;;;19.38;100.00;100720.69;5193952;28;20045;-79
2021/06/12 03:52:51;;;;;;;9.35;5.97;;;;;;;19.50;100.00;100709.25;5197330;28;20036;-79
2021/06/12 03:55:22;;;;;;;11.02;5.85;;;;;;;19.40;100.00;100714.34;5191428;28;20495;-80
2021/06/12 03:57:52;;;;;;;8.20;6.03;;;;;;;19.35;100.00;100711.16;5194453;28;20039;-80
2021/06/12 04:00:23;;;;;;;8.65;6.05;;;;;;;19.44;100.00;100709.69;5198881;28;20100;-79
2021/06/12 04:02:53;;;;;;;8.82;6.00;;;;;;;19.38;100.00;100700.34;5208529;28;20047;-80
2021/06/12 04:05:24;;;;;;;11.05;6.50;;;;;;;19.19;100.00;100705.22;5197445;28;20034;-79
2021/06/12 04:07:55;;;;;;;9.93;6.50;;;;;;;19.35;100.00;100711.16;5200293;28;20021;-79
2021/06/12 04:10:25;;;;;;;9.00;6.15;;;;;;;19.48;100.00;100719.94;5198542;28;20349;-79
2021/06/12 04:12:56;;;;;;;12.80;6.33;;;;;;;19.45;100.00;100706.06;5197132;28;20479;-79
2021/06/12 04:15:27;;;;;;;9.35;6.18;;;;;;;19.33;100.00;100705.13;5200337;28;20312;-79
2021/06/12 04:18:07;;;;;;;8.48;6.55;;;;;;;19.49;100.00;100695.16;5201182;28;20053;-80
2021/06/12 04:20:39;;;;;;;8.68;7.20;;;;;;;19.19;100.00;100699.06;5206867;28;20060;-79
2021/06/12 04:23:09;;;;;;;9.40;7.25;;;;;;;19.12;100.00;100701.25;5198079;28;20029;-79
2021/06/12 04:25:40;;;;;;;7.68;6.22;;;;;;;19.19;100.00;100694.63;5197445;28;20087;-80
2021/06/12 04:28:10;;;;;;;10.45;7.22;;;;;;;19.21;100.00;100690.06;5189499;28;20030;-79
2021/06/12 04:30:41;;;;;;;10.65;6.18;;;;;;;19.24;100.00;100675.75;5206158;28;20033;-80
2021/06/12 04:33:11;;;;;;;10.88;6.07;;;;;;;19.02;100.00;100681.66;5202160;28;20026;-80
2021/06/12 04:35:41;;;;;;;12.32;6.65;;;;;;;19.10;100.00;100687.25;5204124;28;20040;-80
2021/06/12 04:38:12;;;;;;;11.35;7.00;;;;;;;19.14;100.00;100686.09;5206661;28;20033;-80
2021/06/12 04:40:42;;;;;;;9.95;7.13;;;;;;;19.31;100.00;100688.44;5202258;28;20032;-80
2021/06/12 04:43:13;;;;;;;10.55;7.50;;;;;;;19.46;100.00;100698.00;5204932;28;20017;-80
2021/06/12 04:45:43;;;;;;;12.48;8.10;;;;;;;19.48;100.00;100688.13;5197571;28;20037;-80
2021/06/12 04:48:14;;;;;;;14.00;7.20;;;;;;;19.69;100.00;100691.06;5196984;28;20026;-80
2021/06/12 04:50:44;;;;;;;13.27;7.25;;;;;;;19.88;100.00;100692.31;5197384;28;20034;-80
2021/06/12 04:53:14;;;;;;;11.97;7.73;;;;;;;19.86;100.00;100686.28;5198772;28;20084;-80
2021/06/12 04:55:45;;;;;;;10.18;7.30;;;;;;;20.16;100.00;100694.69;5196596;28;20276;-80
2021/06/12 04:58:15;;;;;;;12.93;7.75;;;;;;;20.17;100.00;100701.72;5201523;28;20026;-80
2021/06/12 05:00:48;;;;;;;15.60;7.78;;;;;;;20.07;100.00;100686.53;5198385;28;20033;-80
2021/06/12 05:03:20;;;;;;;17.65;7.68;;;;;;;20.17;100.00;100691.09;5196745;28;20030;-80
2021/06/12 05:05:50;;;;;;;13.35;8.80;;;;;;;20.20;100.00;100680.25;5207883;28;20029;-80
2021/06/12 05:08:20;;;;;;;15.85;8.93;;;;;;;20.31;100.00;100684.78;5199096;28;20034;-80
2021/06/12 05:10:51;;;;;;;13.35;8.85;;;;;;;20.53;100.00;100679.56;5196166;28;20041;-80
2021/06/12 05:13:21;;;;;;;16.13;9.43;;;;;;;20.85;100.00;100686.81;5197222;28;20026;-80
2021/06/12 05:15:51;;;;;;;13.27;9.60;;;;;;;21.19;99.56;100688.59;5195036;28;20092;-80
2021/06/12 05:18:28;;;;;;;13.15;10.02;;;;;;;21.32;98.57;100687.53;5195706;28;20022;-80
2021/06/12 05:20:59;;;;;;;14.77;10.13;;;;;;;21.33;97.82;100680.38;5196061;28;20029;-80
2021/06/12 05:23:29;;;;;;;16.67;10.57;;;;;;;21.35;97.97;100671.34;5198444;28;20021;-79
2021/06/12 05:26:03;;;;;;;16.02;10.32;;;;;;;21.45;97.84;100668.81;5198987;28;20108;-80
2021/06/12 05:28:33;;;;;;;14.52;10.88;;;;;;;21.35;97.57;100673.13;5196153;28;20457;-80
2021/06/12 05:31:04;;;;;;;13.95;10.80;;;;;;;21.18;98.66;100677.13;5195937;28;20029;-80
2021/06/12 05:33:34;;;;;;;16.58;11.77;;;;;;;21.04;99.00;100679.16;5193179;28;20056;-79
2021/06/12 05:36:05;;;;;;;18.67;12.43;;;;;;;20.93;100.00;100693.25;5204576;28;20032;-80
2021/06/12 05:38:36;;;;;;;19.38;12.43;;;;;;;20.88;100.00;100683.94;5197627;28;20022;-79
2021/06/12 05:41:06;;;;;;;17.50;12.93;;;;;;;20.82;100.00;100684.38;5201944;28;20032;-80
2021/06/12 05:43:37;;;;;;;17.35;13.38;;;;;;;20.67;100.00;100682.84;5206270;28;20029;-80
2021/06/12 05:46:07;;;;;;;22.70;14.10;;;;;;;20.82;100.00;100676.41;5194777;28;20022;-80
2021/06/12 05:48:37;;;;;;;19.55;14.00;;;;;;;20.79;100.00;100668.66;5196909;28;20025;-80
2021/06/12 05:51:08;;;;;;;19.33;13.63;;;;;;;20.95;100.00;100679.84;5193789;28;20026;-80
2021/06/12 05:53:38;;;;;;;18.88;12.95;;;;;;;20.89;100.00;100677.66;5198211;28;20037;-80
2021/06/12 05:56:08;;;;;;;17.83;13.88;;;;;;;20.85;100.00;100679.72;5190883;28;20022;-80
2021/06/12 05:58:39;;;;;;;18.38;14.05;;;;;;;20.67;100.00;100685.50;5196117;28;20029;-80
2021/06/12 06:01:09;;;;;;;22.17;14.40;;;;;;;20.59;100.00;100695.03;5197064;28;20029;-80
2021/06/12 06:03:39;;;;;;;22.48;14.73;;;;;;;20.60;100.00;100702.88;5206188;28;20540;-80
2021/06/12 06:06:10;;;;;;;21.92;14.48;;;;;;;20.46;100.00;100696.91;5197032;28;20112;-79
2021/06/12 06:08:41;;;;;;;20.30;13.57;;;;;;;20.44;100.00;100704.97;5193658;28;20653;-80
2021/06/12 06:11:11;;;;;;;20.95;14.85;;;;;;;20.39;100.00;100688.56;5195620;28;20041;-80
2021/06/12 06:13:44;;;;;;;19.23;14.02;;;;;;;20.52;100.00;100699.97;5194994;28;20088;-80
2021/06/12 06:16:15;;;;;;;19.40;13.60;;;;;;;20.85;100.00;100708.06;5195542;28;20025;-80
2021/06/12 06:18:45;;;;;;;19.87;14.40;;;;;;;20.99;100.00;100703.44;5196052;28;20030;-80
2021/06/12 06:21:16;;;;;;;24.33;14.90;;;;;;;20.86;100.00;100707.97;5196424;28;20367;-80
2021/06/12 06:23:47;;;;;;;21.17;14.57;;;;;;;20.85;100.00;100705.41;5195095;28;20052;-80
2021/06/12 06:26:18;;;;;;;30.35;18.45;;;;;;;20.91;100.00;100700.50;5191039;28;20484;-80
2021/06/12 06:28:48;;;;;;;32.80;19.00;;;;;;;20.70;100.00;100695.94;5201570;28;20040;-80
2021/06/12 06:31:19;;;;;;;30.70;20.38;;;;;;;20.76;100.00;100692.81;5199495;28;20076;-80
2021/06/12 06:33:49;;;;;;;26.88;19.13;;;;;;;20.66;100.00;100688.31;5193528;28;20036;-80
2021/06/12 06:36:19;;;;;;;30.90;19.17;;;;;;;20.79;100.00;100695.22;5199515;28;20021;-80
2021/06/12 06:38:49;;;;;;;27.30;19.52;;;;;;;20.82;100.00;100692.34;5196259;28;20104;-80
2021/06/12 06:41:20;;;;;;;26.73;18.70;;;;;;;20.95;100.00;100693.13;5199725;28;20053;-80
2021/06/12 06:43:50;;;;;;;29.13;18.73;;;;;;;21.04;99.97;100684.47;5197921;28;20577;-80
2021/06/12 06:46:20;;;;;;;29.45;19.88;;;;;;;21.00;99.62;100683.84;5194210;28;20108;-80
2021/06/12 06:48:51;;;;;;;28.58;19.25;;;;;;;21.03;99.80;100688.09;5195222;28;20049;-81
2021/06/12 06:51:21;;;;;;;28.67;18.95;;;;;;;21.21;99.90;100681.38;5193722;28;20025;-80
2021/06/12 06:53:52;;;;;;;25.80;18.77;;;;;;;21.11;100.00;100675.06;5196158;28;20160;-80
2021/06/12 06:56:22;;;;;;;26.98;19.60;;;;;;;21.29;99.00;100671.81;5196939;28;20127;-80
2021/06/12 06:58:52;;;;;;;27.23;18.73;;;;;;;21.23;99.61;100671.44;5194954;28;20029;-80
2021/06/12 07:01:22;;;;;;;27.77;17.85;;;;;;;21.15;97.96;100671.19;5196524;28;20500;-81
2021/06/12 07:03:53;;;;;;;27.25;17.95;;;;;;;20.72;98.91;100678.06;5192568;28;20541;-80
2021/06/12 07:06:23;;;;;;;27.70;18.42;;;;;;;20.47;100.00;100678.19;5191727;28;20120;-80
2021/06/12 07:08:54;;;;;;;32.00;18.63;;;;;;;20.61;100.00;100670.06;5221604;22;20414;-80
2021/06/12 07:11:24;;;;;;;28.67;19.08;;;;;;;20.51;100.00;100668.19;5217309;28;20025;-80
2021/06/12 07:13:54;;;;;;;30.52;19.83;;;;;;;20.38;100.00;100670.06;5218215;28;20460;-80
2021/06/12 07:16:25;;;;;;;27.63;18.50;;;;;;;20.40;100.00;100669.00;5212926;28;20028;-80
2021/06/12 07:18:57;;;;;;;28.90;18.77;;;;;;;20.54;100.00;100670.63;5208212;28;20028;-80
2021/06/12 07:21:27;;;;;;;26.67;18.73;;;;;;;20.57;100.00;100662.41;5205897;28;20036;-80
2021/06/12 07:23:57;;;;;;;24.40;17.92;;;;;;;20.41;100.00;100667.19;5211728;28;20490;-80
2021/06/12 07:26:28;;;;;;;26.50;18.05;;;;;;;20.54;100.00;100662.66;5195665;28;20410;-80
2021/06/12 07:28:58;;;;;;;25.70;17.10;;;;;;;20.45;100.00;100666.00;5202198;28;20028;-80
2021/06/12 07:31:28;;;;;;;25.63;16.80;;;;;;;20.22;100.00;100664.19;5193060;28;20025;-80
2021/06/12 07:33:59;;;;;;;25.23;17.25;;;;;;;20.16;100.00;100662.84;5200397;28;20391;-80
2021/06/12 07:36:29;;;;;;;27.80;18.20;;;;;;;20.11;100.00;100662.34;5208578;28;20026;-81
2021/06/12 07:39:00;;;;;;;26.70;18.70;;;;;;;20.01;100.00;100669.25;5218196;28;20352;-80
2021/06/12 07:41:30;;;;;;;31.60;18.88;;;;;;;19.82;100.00;100665.38;5215009;28;20033;-80
2021/06/12 07:44:02;;;;;;;38.13;21.92;;;;;;;19.67;100.00;100675.28;5217882;28;20538;-80
2021/06/12 07:46:34;;;;;;;31.45;21.05;;;;;;;19.58;100.00;100670.63;5216863;28;20033;-80
2021/06/12 07:49:05;;;;;;;34.53;23.13;;;;;;;19.93;100.00;100666.28;5215501;28;20052;-80
2021/06/12 07:51:35;;;;;;;30.55;21.33;;;;;;;20.42;100.00;100672.38;5212760;28;20029;-80
2021/06/12 07:54:06;;;;;;;33.95;21.27;;;;;;;20.31;100.00;100672.31;5212287;28;20094;-80
2021/06/12 07:56:36;;;;;;;27.85;19.75;;;;;;;20.17;100.00;100675.19;5213768;28;20049;-80
2021/06/12 07:59:06;;;;;;;31.42;20.58;;;;;;;20.08;100.00;100683.78;5210910;28;20059;-80
2021/06/12 08:01:37;;;;;;;30.60;20.75;;;;;;;20.02;100.00;100676.28;5211388;28;20057;-80
2021/06/12 08:04:07;;;;;;;27.73;21.23;;;;;;;20.25;100.00;100675.44;5209617;28;20434;-80
2021/06/12 08:06:38;;;;;;;32.08;21.50;;;;;;;20.25;100.00;100675.44;5217426;28;20079;-80
2021/06/12 08:09:08;;;;;;;28.30;20.02;;;;;;;20.70;100.00;100680.00;5216868;28;20025;-80
2021/06/12 08:11:38;;;;;;;31.55;19.20;;;;;;;21.07;100.00;100677.09;5222261;28;20035;-80
2021/06/12 08:14:09;;;;;;;27.13;18.88;;;;;;;20.99;100.00;100675.97;5219052;28;20112;-80
2021/06/12 08:16:39;;;;;;;28.73;18.30;;;;;;;21.29;100.00;100674.47;5222528;28;20059;-80
2021/06/12 08:19:10;;;;;;;29.20;18.63;;;;;;;21.31;100.00;100679.66;5218554;28;20036;-80
2021/06/12 08:21:43;;;;;;;26.55;18.65;;;;;;;21.13;100.00;100678.44;5217821;28;20482;-80
2021/06/12 08:24:13;;;;;;;25.85;17.48;;;;;;;21.08;100.00;100677.94;5217457;28;20028;-80
2021/06/12 08:26:44;;;;;;;23.20;16.35;;;;;;;20.86;100.00;100670.78;5208096;28;20076;-79
2021/06/12 08:29:14;;;;;;;24.90;17.52;;;;;;;20.86;100.00;100670.78;5215427;28;20086;-79
2021/06/12 08:31:45;;;;;;;20.58;15.25;;;;;;;20.42;100.00;100663.56;5212349;28;20076;-79
2021/06/12 08:34:15;;;;;;;25.38;16.83;;;;;;;20.75;100.00;100669.88;5212257;28;20024;-80
2021/06/12 08:36:46;;;;;;;22.70;16.13;;;;;;;20.89;100.00;100654.59;5210328;28;20025;-79
2021/06/12 08:39:16;;;;;;;21.85;15.48;;;;;;;21.06;100.00;100669.25;5216297;28;20108;-79
2021/06/12 08:41:47;;;;;;;19.95;14.40;;;;;;;20.70;100.00;100672.03;5217386;28;20458;-80
2021/06/12 08:44:22;;;;;;;21.42;14.35;;;;;;;20.66;100.00;100667.06;5216191;28;20025;-79
2021/06/12 08:46:53;;;;;;;20.85;14.90;;;;;;;20.67;100.00;100675.75;5212389;28;20033;-79
2021/06/12 08:49:24;;;;;;;23.88;14.52;;;;;;;21.03;100.00;100666.84;5203472;28;20377;-79
2021/06/12 08:51:55;;;;;;;19.83;13.95;;;;;;;21.33;100.00;100661.78;5211603;28;20040;-80
2021/06/12 08:54:26;;;;;;;21.00;12.70;;;;;;;21.41;100.00;100656.72;5215937;28;20018;-80
2021/06/12 08:56:56;;;;;;;18.17;12.23;;;;;;;21.65;100.00;100650.34;5213871;28;20035;-79
2021/06/12 08:59:33;;;;;;;16.77;10.13;;;;;;;22.05;97.23;100658.63;5218245;28;20017;-79
2021/06/12 09:02:04;;;;;;;14.55;10.40;;;;;;;22.31;98.63;100644.00;5211442;28;20031;-80
2021/06/12 09:04:42;;;;;;;16.60;9.63;;;;;;;22.81;95.71;100649.50;5207265;28;20033;-80
2021/06/12 09:07:21;;;;;;;12.70;9.30;;;;;;;23.26;91.36;100651.78;5212476;28;20017;-80
2021/06/12 09:09:54;;;;;;;12.25;8.30;;;;;;;23.05;91.39;100653.56;5218092;28;20177;-80
2021/06/12 09:12:47;;;;;;;10.13;7.85;;;;;;;22.66;93.95;100660.59;5215641;28;20057;-80
2021/06/12 09:15:19;;;;;;;12.27;8.48;;;;;;;22.60;93.66;100664.59;5214827;28;20104;-80
2021/06/12 09:17:50;;;;;;;12.45;8.32;;;;;;;22.29;93.49;100652.09;5216380;28;20111;-80
2021/06/12 09:20:41;;;;;;;13.27;8.55;;;;;;;22.26;94.22;100663.00;5212192;28;20080;-79
2021/06/12 09:23:18;;;;;;;12.95;9.05;;;;;;;22.24;96.13;100654.31;5207342;28;20402;-80
2021/06/12 09:25:49;;;;;;;9.63;7.53;;;;;;;22.57;95.91;100642.72;5211404;28;20029;-80
2021/06/12 09:28:19;;;;;;;13.60;8.43;;;;;;;22.88;94.87;100640.81;5212327;28;20068;-80
2021/06/12 09:30:49;;;;;;;13.15;9.00;;;;;;;22.84;91.75;100639.41;5217487;28;20037;-80
2021/06/12 09:33:36;;;;;;;11.55;8.38;;;;;;;22.97;93.60;100639.19;5217018;28;20473;-80
2021/06/12 09:36:07;;;;;;;12.20;7.35;;;;;;;23.14;90.72;100630.63;5212040;28;20116;-80
2021/06/12 09:38:38;;;;;;;16.23;8.95;;;;;;;23.26;89.25;100635.78;5211916;28;20491;-80
2021/06/12 09:41:27;;;;;;;12.95;8.60;;;;;;;23.14;90.73;100636.81;5211403;28;20033;-81
2021/06/12 09:43:58;;;;;;;11.85;8.15;;;;;;;22.99;89.96;100635.44;5214319;28;20037;-81
2021/06/12 09:46:32;;;;;;;12.50;8.68;;;;;;;23.10;90.10;100639.84;5218228;28;20379;-81
2021/06/12 09:49:05;;;;;;;13.07;8.40;;;;;;;23.12;90.03;100622.78;5204582;28;20500;-80
2021/06/12 09:51:35;;;;;;;12.38;8.40;;;;;;;23.28;88.13;100616.94;5207524;28;20119;-80
2021/06/12 09:54:07;;;;;;;13.25;8.15;;;;;;;23.61;87.85;100609.50;5213750;28;20056;-80
2021/06/12 09:56:37;;;;;;;11.35;7.28;;;;;;;23.77;86.99;100609.81;5211505;28;20089;-80
2021/06/12 09:59:18;;;;;;;12.52;7.60;;;;;;;24.48;85.34;100616.66;5215543;28;20100;-80
2021/06/12 10:01:50;;;;;;;12.55;7.68;;;;;;;24.16;84.09;100619.63;5213591;28;20038;-81
2021/06/12 10:04:21;;;;;;;12.30;6.55;;;;;;;24.33;85.51;100610.91;5209547;28;20022;-81
2021/06/12 10:06:51;;;;;;;10.48;7.82;;;;;;;23.18;87.30;100616.91;5214647;28;20037;-80
2021/06/12 10:09:23;;;;;;;10.68;7.43;;;;;;;22.90;88.05;100624.72;5217417;28;20052;-79
2021/06/12 10:11:54;;;;;;;11.70;7.35;;;;;;;22.74;88.92;100622.53;5215781;28;20040;-79
2021/06/12 10:14:25;;;;;;;12.27;7.18;;;;;;;22.60;89.81;100634.47;5217529;28;20033;-79
2021/06/12 10:16:56;;;;;;;12.20;7.15;;;;;;;22.28;89.10;100631.78;5215321;28;20037;-80
2021/06/12 10:19:27;;;;;;;10.43;6.93;;;;;;;22.03;91.51;100623.25;5216612;28;20027;-79
2021/06/12 10:21:57;;;;;;;9.68;7.35;;;;;;;21.82;92.64;100622.34;5216560;28;20032;-79
2021/06/12 10:24:28;;;;;;;12.43;7.20;;;;;;;21.91;91.41;100616.31;5213769;28;20025;-80
2021/06/12 10:26:59;;;;;;;10.27;6.80;;;;;;;21.80;91.77;100617.19;5209582;28;20115;-80
2021/06/12 10:29:30;;;;;;;12.27;6.82;;;;;;;21.80;90.28;100611.00;5209144;28;20017;-80
2021/06/12 10:32:02;;;;;;;13.25;6.40;;;;;;;21.89;90.52;100616.41;5215636;28;20057;-80
2021/06/12 10:34:33;;;;;;;11.85;7.22;;;;;;;21.90;91.05;100620.75;5213462;28;20669;-80
2021/06/12 10:37:06;;;;;;;10.77;6.70;;;;;;;21.90;90.63;100620.75;5205591;28;20040;-80
2021/06/12 10:39:39;;;;;;;11.13;6.65;;;;;;;21.94;89.12;100624.84;5221715;28;20017;-79
2021/06/12 10:42:10;;;;;;;9.20;6.78;;;;;;;22.01;89.42;100610.09;5218069;28;20077;-80
2021/06/12 10:44:43;;;;;;;11.98;6.57;;;;;;;21.86;89.00;100618.47;5213806;28;20033;-79
2021/06/12 10:47:45;;;;;;;6.90;5.60;;;;;;;21.63;88.96;100636.31;5220832;28;20017;-80
2021/06/12 10:50:28;;;;;;;10.75;6.45;;;;;;;21.62;91.24;100641.72;5215781;28;20049;-79
2021/06/12 10:53:20;;;;;;;10.48;7.38;;;;;;;21.29;92.53;100642.56;5210910;28;20024;-79
2021/06/12 10:55:52;;;;;;;12.25;6.75;;;;;;;21.08;94.06;100638.91;5206471;28;20029;-79
2021/06/12 10:58:31;;;;;;;10.30;6.90;;;;;;;21.24;94.82;100642.06;5216094;28;20118;-79
2021/06/12 11:01:22;;;;;;;13.07;7.03;;;;;;;21.19;93.35;100636.28;5210625;28;20053;-78
2021/06/12 11:04:15;;;;;;;10.35;6.65;;;;;;;21.07;92.26;100650.50;5210548;28;20155;-78
2021/06/12 11:06:59;;;;;;;11.02;6.95;;;;;;;20.94;91.54;100647.13;5212023;28;20104;-78
2021/06/12 11:09:34;;;;;;;9.90;6.95;;;;;;;21.03;91.54;100643.75;5212779;28;20027;-78
2021/06/12 11:12:14;;;;;;;;;;;;;;;21.27;89.79;100638.34;5209203;28;20029;-78
2021/06/12 11:15:03;;;;;;;12.13;6.82;;;;;;;21.37;90.21;100640.16;5211051;28;19913;-78
2021/06/12 11:17:34;;;;;;;11.57;6.50;;;;;;;21.47;89.78;100629.63;5210069;28;20037;-78
2021/06/12 11:20:05;;;;;;;10.15;6.75;;;;;;;21.68;89.92;100617.28;5217106;28;20035;-79
2021/06/12 11:22:53;;;;;;;11.33;7.10;;;;;;;21.62;89.31;100623.97;5213053;28;20072;-78
2021/06/12 11:25:27;;;;;;;9.75;6.82;;;;;;;21.75;89.50;100629.97;5210570;28;20040;-79
2021/06/12 11:28:22;;;;;;;11.80;7.53;;;;;;;21.52;89.31;100624.78;5216059;28;20072;-79
2021/06/12 11:31:13;;;;;;;10.15;7.18;;;;;;;21.56;88.62;100628.91;5214492;28;20035;-80
2021/06/12 11:34:21;;;;;;;12.55;7.72;;;;;;;22.08;88.11;100621.91;5209181;28;20029;-79
2021/06/12 11:37:14;;;;;;;8.77;6.53;;;;;;;22.76;85.74;100623.22;5211240;28;20160;-79